Mal Amanhado — CUSP — position and weather

sailwx.info

Track history (hours):
 
Tides and Currents Weather Stations Pressure Air Temp Water Temp Dewpoint Dewpoint Depression Visibility Wind Speed Wind Dir Waves Ship Positions

Mal Amanhado

Last reported at 2018-Jun-25 15:36 UTC. Time now 2018-Jun-25 17:32 UTC.
Position N 39°15' W 031°19'.

Length 29 m.

MMSI: 204858000.

Date/timePositionNaut miles runAvg speedWind from/ knotsBaromVisibWave heightAir tempDewpointWater temp
2018-Jun-25 15:36N 39°15' W 031°19'5 8.2
2018-Jun-25 14:59N 39°20' W 031°21'4 8.5
2018-Jun-25 14:28N 39°24' W 031°23'2 5.3
2018-Jun-25 14:01N 39°22' W 031°26'3 5.8
2018-Jun-25 13:30N 39°21' W 031°23'5 9.0
2018-Jun-25 13:00N 39°16' W 031°21'4 6.5
2018-Jun-25 12:27N 39°14' W 031°17'43 6.6
2018-Jun-25 05:57N 39°16' W 030°21'4 8.6
2018-Jun-25 05:30N 39°16' W 030°16'11 8.5
2018-Jun-25 04:11N 39°16' W 030°02'2 8.6
2018-Jun-25 04:00N 39°15' W 029°59'4 8.7
2018-Jun-25 03:30N 39°15' W 029°54'4 8.3
2018-Jun-25 03:00N 39°15' W 029°49'4 8.3
2018-Jun-25 02:30N 39°15' W 029°43'4 8.1
2018-Jun-25 02:00N 39°15' W 029°38'74 7.8
2018-Jun-24 16:32N 39°10' W 028°02'0 8.0
2018-Jun-24 16:30N 39°10' W 028°02'3 6.4
2018-Jun-24 16:00N 39°09' W 027°58'4 7.7
2018-Jun-24 15:30N 39°05' W 027°58'2 3.8
2018-Jun-24 15:01N 39°03' W 027°58'0 0.0
2018-Jun-24 14:30N 39°03' W 027°58'0 0.0
2018-Jun-24 14:00N 39°03' W 027°58'0 0.0
2018-Jun-24 13:30N 39°03' W 027°58'3 6.5
2018-Jun-24 13:00N 39°03' W 027°54'4 8.7
2018-Jun-24 12:30N 39°02' W 027°49'4 8.7
2018-Jun-24 12:00N 39°01' W 027°43'4 8.6
2018-Jun-24 11:31N 39°00' W 027°38'4 8.3
2018-Jun-24 11:00N 38°60' W 027°32'4 8.1
2018-Jun-24 10:30N 38°59' W 027°27'3 6.7
2018-Jun-24 10:01N 38°59' W 027°23'3 6.6
2018-Jun-24 09:30N 38°57' W 027°19'4 7.6
2018-Jun-24 09:00N 38°59' W 027°15'4 8.1
2018-Jun-24 08:28N 38°59' W 027°09'38 8.3
2018-Jun-24 03:58N 38°40' W 026°28'4 9.0
2018-Jun-24 03:30N 38°38' W 026°23'5 9.4
2018-Jun-24 03:00N 38°35' W 026°18'4 9.1
2018-Jun-24 02:30N 38°33' W 026°13'5 9.3
2018-Jun-24 02:00N 38°30' W 026°08'5 9.3
2018-Jun-24 01:30N 38°28' W 026°03'4 8.7
2018-Jun-24 01:00N 38°25' W 025°59'4 8.4
2018-Jun-24 00:30N 38°23' W 025°54'4 8.7
2018-Jun-24 00:00N 38°21' W 025°49'4 8.5
2018-Jun-23 23:30N 38°18' W 025°45'4 8.3
2018-Jun-23 23:00N 38°16' W 025°40'4 8.0
2018-Jun-23 22:31N 38°14' W 025°36'4 8.3
2018-Jun-23 22:00N 38°12' W 025°32'4 8.6
2018-Jun-23 21:30N 38°10' W 025°27'4 8.8
2018-Jun-23 21:01N 38°07' W 025°22'4 8.5
2018-Jun-23 20:30N 38°05' W 025°18'4 8.4
2018-Jun-23 20:00N 38°03' W 025°13'4 8.5
2018-Jun-23 19:31N 38°00' W 025°09'4 8.3
2018-Jun-23 19:00N 37°58' W 025°04'4 7.3
2018-Jun-23 18:30N 37°57' W 024°60'4 7.1
2018-Jun-23 18:01N 37°56' W 024°55'4 7.3
2018-Jun-23 17:30N 37°55' W 024°51'39 5.4
2018-Jun-23 10:17N 37°29' W 024°14'2 7.5
2018-Jun-23 10:00N 37°26' W 024°14'15 5.5
2018-Jun-23 07:13N 37°14' W 024°26'2 7.6
2018-Jun-23 07:00N 37°15' W 024°28'4 7.4
2018-Jun-23 06:30N 37°15' W 024°33'2 4.6
2018-Jun-23 06:00N 37°15' W 024°35'0 0.6
2018-Jun-23 05:30N 37°15' W 024°35'0 0.7
2018-Jun-23 05:01N 37°15' W 024°35'0 0.7
2018-Jun-23 04:30N 37°16' W 024°35'0 0.6
2018-Jun-23 04:00N 37°16' W 024°35'0 0.8
2018-Jun-23 03:30N 37°16' W 024°35'0 0.7
2018-Jun-23 03:00N 37°17' W 024°35'0 0.7
2018-Jun-23 02:30N 37°17' W 024°34'0 0.7
2018-Jun-23 02:00N 37°17' W 024°34'0 0.9
2018-Jun-23 01:30N 37°18' W 024°34'0 0.7
2018-Jun-23 01:00N 37°18' W 024°34'0 0.8
2018-Jun-23 00:30N 37°18' W 024°34'0 0.8
2018-Jun-23 00:00N 37°19' W 024°33'0 0.9
2018-Jun-22 23:30N 37°19' W 024°33'0 0.8
2018-Jun-22 23:01N 37°20' W 024°33'0 0.7
2018-Jun-22 22:30N 37°20' W 024°33'0 0.7
2018-Jun-22 22:00N 37°20' W 024°33'0 0.8
2018-Jun-22 21:31N 37°21' W 024°33'0 0.8
2018-Jun-22 21:00N 37°21' W 024°33'28 5.8
2018-Jun-22 16:15N 37°48' W 024°38'2 7.8
2018-Jun-22 16:00N 37°50' W 024°40'3 7.0
2018-Jun-22 15:31N 37°51' W 024°44'8 6.6
2018-Jun-22 14:17N 37°52' W 024°54'7 2.3
2018-Jun-22 11:22N 37°59' W 024°55'3 7.9
2018-Jun-22 11:00N 37°59' W 024°51'4 8.5
2018-Jun-22 10:30N 37°56' W 024°48'4 7.3
2018-Jun-22 10:00N 37°53' W 024°44'4 7.8
2018-Jun-22 09:30N 37°50' W 024°41'2 0.7
2018-Jun-22 06:56N 37°52' W 024°40'3 6.9
2018-Jun-22 06:30N 37°51' W 024°44'3 5.2
2018-Jun-22 06:00N 37°50' W 024°46'0 0.2
2018-Jun-22 05:30N 37°50' W 024°46'0 0.1
2018-Jun-22 05:00N 37°50' W 024°46'0 0.2
2018-Jun-22 04:30N 37°50' W 024°46'0 0.4
2018-Jun-22 04:00N 37°50' W 024°46'0 0.6
2018-Jun-22 03:30N 37°51' W 024°46'0 0.6
2018-Jun-22 03:00N 37°51' W 024°46'0 0.5
2018-Jun-22 02:31N 37°51' W 024°46'0 0.8
2018-Jun-22 02:00N 37°52' W 024°46'0 0.8
2018-Jun-22 01:30N 37°52' W 024°46'0 0.9
2018-Jun-22 01:01N 37°52' W 024°46'0 0.8
2018-Jun-22 00:30N 37°53' W 024°46'0 0.7
2018-Jun-22 00:00N 37°53' W 024°46'0 0.7
2018-Jun-21 23:30N 37°54' W 024°46'0 0.7
2018-Jun-21 23:00N 37°54' W 024°46'0 0.8
2018-Jun-21 22:30N 37°54' W 024°47'0 0.7
2018-Jun-21 22:00N 37°54' W 024°47'0 0.6
2018-Jun-21 21:30N 37°55' W 024°47'0 0.6
2018-Jun-21 21:00N 37°55' W 024°47'4 7.0
2018-Jun-21 20:30N 37°51' W 024°48'9 1.7
2018-Jun-21 15:09N 37°50' W 024°37'1 9.8
2018-Jun-21 15:00N 37°49' W 024°35'3 5.0
2018-Jun-21 14:30N 37°48' W 024°32'5 9.4
2018-Jun-21 14:00N 37°45' W 024°28'4 8.0
2018-Jun-21 13:30N 37°43' W 024°24'4 7.3
2018-Jun-21 13:00N 37°40' W 024°21'4 7.8
2018-Jun-21 12:30N 37°37' W 024°18'4 8.0
2018-Jun-21 12:00N 37°34' W 024°14'4 7.3
2018-Jun-21 11:30N 37°31' W 024°12'4 7.6
2018-Jun-21 11:00N 37°28' W 024°10'4 7.5
2018-Jun-21 10:30N 37°25' W 024°07'4 8.7
2018-Jun-21 10:00N 37°21' W 024°04'  
Track history (hours):
 
Tides and Currents Weather Stations Pressure Air Temp Water Temp Dewpoint Dewpoint Depression Visibility Wind Speed Wind Dir Waves Ship Positions

Mal Amanhado

Last reported at 2018-Jun-25 15:36 UTC. Time now 2018-Jun-25 17:32 UTC.
Position N 39°15' W 031°19'.

Length 29 m.

MMSI: 204858000.

Date/timePositionNaut miles runAvg speedWind from/ knotsBaromVisibWave heightAir tempDewpointWater temp
2018-Jun-25 15:36N 39°15' W 031°19'5 8.2
2018-Jun-25 14:59N 39°20' W 031°21'4 8.5
2018-Jun-25 14:28N 39°24' W 031°23'2 5.3
2018-Jun-25 14:01N 39°22' W 031°26'3 5.8
2018-Jun-25 13:30N 39°21' W 031°23'5 9.0
2018-Jun-25 13:00N 39°16' W 031°21'4 6.5
2018-Jun-25 12:27N 39°14' W 031°17'43 6.6
2018-Jun-25 05:57N 39°16' W 030°21'4 8.6
2018-Jun-25 05:30N 39°16' W 030°16'11 8.5
2018-Jun-25 04:11N 39°16' W 030°02'2 8.6
2018-Jun-25 04:00N 39°15' W 029°59'4 8.7
2018-Jun-25 03:30N 39°15' W 029°54'4 8.3
2018-Jun-25 03:00N 39°15' W 029°49'4 8.3
2018-Jun-25 02:30N 39°15' W 029°43'4 8.1
2018-Jun-25 02:00N 39°15' W 029°38'74 7.8
2018-Jun-24 16:32N 39°10' W 028°02'0 8.0
2018-Jun-24 16:30N 39°10' W 028°02'3 6.4
2018-Jun-24 16:00N 39°09' W 027°58'4 7.7
2018-Jun-24 15:30N 39°05' W 027°58'2 3.8
2018-Jun-24 15:01N 39°03' W 027°58'0 0.0
2018-Jun-24 14:30N 39°03' W 027°58'0 0.0
2018-Jun-24 14:00N 39°03' W 027°58'0 0.0
2018-Jun-24 13:30N 39°03' W 027°58'3 6.5
2018-Jun-24 13:00N 39°03' W 027°54'4 8.7
2018-Jun-24 12:30N 39°02' W 027°49'4 8.7
2018-Jun-24 12:00N 39°01' W 027°43'4 8.6
2018-Jun-24 11:31N 39°00' W 027°38'4 8.3
2018-Jun-24 11:00N 38°60' W 027°32'4 8.1
2018-Jun-24 10:30N 38°59' W 027°27'3 6.7
2018-Jun-24 10:01N 38°59' W 027°23'3 6.6
2018-Jun-24 09:30N 38°57' W 027°19'4 7.6
2018-Jun-24 09:00N 38°59' W 027°15'4 8.1
2018-Jun-24 08:28N 38°59' W 027°09'38 8.3
2018-Jun-24 03:58N 38°40' W 026°28'4 9.0
2018-Jun-24 03:30N 38°38' W 026°23'5 9.4
2018-Jun-24 03:00N 38°35' W 026°18'4 9.1
2018-Jun-24 02:30N 38°33' W 026°13'5 9.3
2018-Jun-24 02:00N 38°30' W 026°08'5 9.3
2018-Jun-24 01:30N 38°28' W 026°03'4 8.7
2018-Jun-24 01:00N 38°25' W 025°59'4 8.4
2018-Jun-24 00:30N 38°23' W 025°54'4 8.7
2018-Jun-24 00:00N 38°21' W 025°49'4 8.5
2018-Jun-23 23:30N 38°18' W 025°45'4 8.3
2018-Jun-23 23:00N 38°16' W 025°40'4 8.0
2018-Jun-23 22:31N 38°14' W 025°36'4 8.3
2018-Jun-23 22:00N 38°12' W 025°32'4 8.6
2018-Jun-23 21:30N 38°10' W 025°27'4 8.8
2018-Jun-23 21:01N 38°07' W 025°22'4 8.5
2018-Jun-23 20:30N 38°05' W 025°18'4 8.4
2018-Jun-23 20:00N 38°03' W 025°13'4 8.5
2018-Jun-23 19:31N 38°00' W 025°09'4 8.3
2018-Jun-23 19:00N 37°58' W 025°04'4 7.3
2018-Jun-23 18:30N 37°57' W 024°60'4 7.1
2018-Jun-23 18:01N 37°56' W 024°55'4 7.3
2018-Jun-23 17:30N 37°55' W 024°51'39 5.4
2018-Jun-23 10:17N 37°29' W 024°14'2 7.5
2018-Jun-23 10:00N 37°26' W 024°14'15 5.5
2018-Jun-23 07:13N 37°14' W 024°26'2 7.6
2018-Jun-23 07:00N 37°15' W 024°28'4 7.4
2018-Jun-23 06:30N 37°15' W 024°33'2 4.6
2018-Jun-23 06:00N 37°15' W 024°35'0 0.6
2018-Jun-23 05:30N 37°15' W 024°35'0 0.7
2018-Jun-23 05:01N 37°15' W 024°35'0 0.7
2018-Jun-23 04:30N 37°16' W 024°35'0 0.6
2018-Jun-23 04:00N 37°16' W 024°35'0 0.8
2018-Jun-23 03:30N 37°16' W 024°35'0 0.7
2018-Jun-23 03:00N 37°17' W 024°35'0 0.7
2018-Jun-23 02:30N 37°17' W 024°34'0 0.7
2018-Jun-23 02:00N 37°17' W 024°34'0 0.9
2018-Jun-23 01:30N 37°18' W 024°34'0 0.7
2018-Jun-23 01:00N 37°18' W 024°34'0 0.8
2018-Jun-23 00:30N 37°18' W 024°34'0 0.8
2018-Jun-23 00:00N 37°19' W 024°33'0 0.9
2018-Jun-22 23:30N 37°19' W 024°33'0 0.8
2018-Jun-22 23:01N 37°20' W 024°33'0 0.7
2018-Jun-22 22:30N 37°20' W 024°33'0 0.7
2018-Jun-22 22:00N 37°20' W 024°33'0 0.8
2018-Jun-22 21:31N 37°21' W 024°33'0 0.8
2018-Jun-22 21:00N 37°21' W 024°33'28 5.8
2018-Jun-22 16:15N 37°48' W 024°38'2 7.8
2018-Jun-22 16:00N 37°50' W 024°40'3 7.0
2018-Jun-22 15:31N 37°51' W 024°44'8 6.6
2018-Jun-22 14:17N 37°52' W 024°54'7 2.3
2018-Jun-22 11:22N 37°59' W 024°55'3 7.9
2018-Jun-22 11:00N 37°59' W 024°51'4 8.5
2018-Jun-22 10:30N 37°56' W 024°48'4 7.3
2018-Jun-22 10:00N 37°53' W 024°44'4 7.8
2018-Jun-22 09:30N 37°50' W 024°41'2 0.7
2018-Jun-22 06:56N 37°52' W 024°40'3 6.9
2018-Jun-22 06:30N 37°51' W 024°44'3 5.2
2018-Jun-22 06:00N 37°50' W 024°46'0 0.2
2018-Jun-22 05:30N 37°50' W 024°46'0 0.1
2018-Jun-22 05:00N 37°50' W 024°46'0 0.2
2018-Jun-22 04:30N 37°50' W 024°46'0 0.4
2018-Jun-22 04:00N 37°50' W 024°46'0 0.6
2018-Jun-22 03:30N 37°51' W 024°46'0 0.6
2018-Jun-22 03:00N 37°51' W 024°46'0 0.5
2018-Jun-22 02:31N 37°51' W 024°46'0 0.8
2018-Jun-22 02:00N 37°52' W 024°46'0 0.8
2018-Jun-22 01:30N 37°52' W 024°46'0 0.9
2018-Jun-22 01:01N 37°52' W 024°46'0 0.8
2018-Jun-22 00:30N 37°53' W 024°46'0 0.7
2018-Jun-22 00:00N 37°53' W 024°46'0 0.7
2018-Jun-21 23:30N 37°54' W 024°46'0 0.7
2018-Jun-21 23:00N 37°54' W 024°46'0 0.8
2018-Jun-21 22:30N 37°54' W 024°47'0 0.7
2018-Jun-21 22:00N 37°54' W 024°47'0 0.6
2018-Jun-21 21:30N 37°55' W 024°47'0 0.6
2018-Jun-21 21:00N 37°55' W 024°47'4 7.0
2018-Jun-21 20:30N 37°51' W 024°48'9 1.7
2018-Jun-21 15:09N 37°50' W 024°37'1 9.8
2018-Jun-21 15:00N 37°49' W 024°35'3 5.0
2018-Jun-21 14:30N 37°48' W 024°32'5 9.4
2018-Jun-21 14:00N 37°45' W 024°28'4 8.0
2018-Jun-21 13:30N 37°43' W 024°24'4 7.3
2018-Jun-21 13:00N 37°40' W 024°21'4 7.8
2018-Jun-21 12:30N 37°37' W 024°18'4 8.0
2018-Jun-21 12:00N 37°34' W 024°14'4 7.3
2018-Jun-21 11:30N 37°31' W 024°12'4 7.6
2018-Jun-21 11:00N 37°28' W 024°10'4 7.5
2018-Jun-21 10:30N 37°25' W 024°07'4 8.7
2018-Jun-21 10:00N 37°21' W 024°04'  

Dump ship's entire track history